sensor_id;sensor_type;location;lat;lon;timestamp;pressure;altitude;pressure_sealevel;temperature;humidity
79366;BME280;68833;53.160;17.920;2023-11-18T00:00:11;101091.29;;;2.55;83.71
79366;BME280;68833;53.160;17.920;2023-11-18T00:02:59;101090.73;;;2.53;83.23
79366;BME280;68833;53.160;17.920;2023-11-18T00:05:27;101094.67;;;2.51;82.99
79366;BME280;68833;53.160;17.920;2023-11-18T00:07:54;101098.36;;;2.47;82.53
79366;BME280;68833;53.160;17.920;2023-11-18T00:10:22;101104.93;;;2.47;83.21
79366;BME280;68833;53.160;17.920;2023-11-18T00:12:50;101110.29;;;2.47;83.19
79366;BME280;68833;53.160;17.920;2023-11-18T00:15:17;101108.52;;;2.45;82.95
79366;BME280;68833;53.160;17.920;2023-11-18T00:17:44;101112.63;;;2.43;83.40
79366;BME280;68833;53.160;17.920;2023-11-18T00:20:11;101111.52;;;2.42;83.11
79366;BME280;68833;53.160;17.920;2023-11-18T00:22:40;101109.02;;;2.39;82.92
79366;BME280;68833;53.160;17.920;2023-11-18T00:25:08;101109.92;;;2.40;83.61
79366;BME280;68833;53.160;17.920;2023-11-18T00:27:35;101112.58;;;2.42;83.43
79366;BME280;68833;53.160;17.920;2023-11-18T00:30:04;101113.11;;;2.43;83.65
79366;BME280;68833;53.160;17.920;2023-11-18T00:32:31;101122.70;;;2.43;83.33
79366;BME280;68833;53.160;17.920;2023-11-18T00:34:58;101128.89;;;2.42;83.19
79366;BME280;68833;53.160;17.920;2023-11-18T00:37:25;101133.19;;;2.41;83.30
79366;BME280;68833;53.160;17.920;2023-11-18T00:39:53;101135.79;;;2.41;83.01
79366;BME280;68833;53.160;17.920;2023-11-18T00:42:20;101140.70;;;2.43;83.40
79366;BME280;68833;53.160;17.920;2023-11-18T00:44:47;101141.43;;;2.44;83.64
79366;BME280;68833;53.160;17.920;2023-11-18T00:47:14;101145.62;;;2.45;83.71
79366;BME280;68833;53.160;17.920;2023-11-18T00:49:41;101149.86;;;2.42;83.09
79366;BME280;68833;53.160;17.920;2023-11-18T00:52:08;101153.14;;;2.42;83.52
79366;BME280;68833;53.160;17.920;2023-11-18T00:54:35;101157.98;;;2.42;82.95
79366;BME280;68833;53.160;17.920;2023-11-18T00:57:03;101153.38;;;2.38;83.19
79366;BME280;68833;53.160;17.920;2023-11-18T00:59:30;101153.92;;;2.39;83.29
79366;BME280;68833;53.160;17.920;2023-11-18T01:01:57;101155.81;;;2.39;83.34
79366;BME280;68833;53.160;17.920;2023-11-18T01:04:24;101162.73;;;2.38;83.39
79366;BME280;68833;53.160;17.920;2023-11-18T01:06:52;101165.63;;;2.37;83.68
79366;BME280;68833;53.160;17.920;2023-11-18T01:09:19;101168.02;;;2.36;83.30
79366;BME280;68833;53.160;17.920;2023-11-18T01:11:46;101166.98;;;2.35;83.23
79366;BME280;68833;53.160;17.920;2023-11-18T01:14:13;101166.77;;;2.34;83.29
79366;BME280;68833;53.160;17.920;2023-11-18T01:16:40;101163.65;;;2.34;82.86
79366;BME280;68833;53.160;17.920;2023-11-18T01:19:07;101160.91;;;2.30;83.13
79366;BME280;68833;53.160;17.920;2023-11-18T01:21:35;101165.95;;;2.30;83.13
79366;BME280;68833;53.160;17.920;2023-11-18T01:24:03;101164.16;;;2.29;83.68
79366;BME280;68833;53.160;17.920;2023-11-18T01:26:30;101167.10;;;2.28;83.29
79366;BME280;68833;53.160;17.920;2023-11-18T01:28:57;101168.26;;;2.26;83.40
79366;BME280;68833;53.160;17.920;2023-11-18T01:31:24;101170.15;;;2.27;83.42
79366;BME280;68833;53.160;17.920;2023-11-18T01:33:51;101169.66;;;2.27;83.51
79366;BME280;68833;53.160;17.920;2023-11-18T01:36:18;101171.96;;;2.29;83.83
79366;BME280;68833;53.160;17.920;2023-11-18T01:38:47;101171.42;;;2.28;83.17
79366;BME280;68833;53.160;17.920;2023-11-18T01:41:13;101173.17;;;2.29;83.42
79366;BME280;68833;53.160;17.920;2023-11-18T01:43:40;101172.84;;;2.29;83.29
79366;BME280;68833;53.160;17.920;2023-11-18T01:46:09;101174.23;;;2.29;82.95
79366;BME280;68833;53.160;17.920;2023-11-18T01:48:37;101178.58;;;2.30;83.03
79366;BME280;68833;53.160;17.920;2023-11-18T01:51:06;101175.56;;;2.28;82.70
79366;BME280;68833;53.160;17.920;2023-11-18T01:53:36;101177.06;;;2.26;83.30
79366;BME280;68833;53.160;17.920;2023-11-18T01:56:04;101176.60;;;2.22;83.07
79366;BME280;68833;53.160;17.920;2023-11-18T01:58:32;101175.66;;;2.20;82.99
79366;BME280;68833;53.160;17.920;2023-11-18T02:01:00;101176.30;;;2.18;83.28
79366;BME280;68833;53.160;17.920;2023-11-18T02:03:27;101179.36;;;2.16;83.33
79366;BME280;68833;53.160;17.920;2023-11-18T02:05:54;101184.04;;;2.16;83.46
79366;BME280;68833;53.160;17.920;2023-11-18T02:08:21;101185.56;;;2.15;83.26
79366;BME280;68833;53.160;17.920;2023-11-18T02:10:55;101180.84;;;2.14;83.24
79366;BME280;68833;53.160;17.920;2023-11-18T02:13:29;101185.04;;;2.15;83.29
79366;BME280;68833;53.160;17.920;2023-11-18T02:15:58;101185.81;;;2.17;83.73
79366;BME280;68833;53.160;17.920;2023-11-18T02:18:28;101186.52;;;2.17;83.38
79366;BME280;68833;53.160;17.920;2023-11-18T02:20:56;101189.48;;;2.18;83.44
79366;BME280;68833;53.160;17.920;2023-11-18T02:23:26;101193.80;;;2.18;83.36
79366;BME280;68833;53.160;17.920;2023-11-18T02:25:54;101198.14;;;2.17;83.55
79366;BME280;68833;53.160;17.920;2023-11-18T02:28:25;101199.40;;;2.15;83.35
79366;BME280;68833;53.160;17.920;2023-11-18T02:30:55;101202.36;;;2.14;83.64
79366;BME280;68833;53.160;17.920;2023-11-18T02:33:44;101207.56;;;2.15;83.38
79366;BME280;68833;53.160;17.920;2023-11-18T02:36:27;101210.67;;;2.14;83.31
79366;BME280;68833;53.160;17.920;2023-11-18T02:39:12;101215.68;;;2.14;83.57
79366;BME280;68833;53.160;17.920;2023-11-18T02:41:46;101218.75;;;2.12;83.17
79366;BME280;68833;53.160;17.920;2023-11-18T02:44:15;101219.55;;;2.11;83.47
79366;BME280;68833;53.160;17.920;2023-11-18T02:46:44;101222.85;;;2.11;83.21
79366;BME280;68833;53.160;17.920;2023-11-18T02:49:12;101226.83;;;2.11;83.80
79366;BME280;68833;53.160;17.920;2023-11-18T02:51:40;101230.80;;;2.11;83.67
79366;BME280;68833;53.160;17.920;2023-11-18T02:54:07;101231.67;;;2.11;83.38
79366;BME280;68833;53.160;17.920;2023-11-18T02:56:37;101230.86;;;2.12;83.97
79366;BME280;68833;53.160;17.920;2023-11-18T02:59:05;101236.55;;;2.11;83.72
79366;BME280;68833;53.160;17.920;2023-11-18T03:01:32;101237.60;;;2.11;83.86
79366;BME280;68833;53.160;17.920;2023-11-18T03:04:00;101242.83;;;2.13;83.66
79366;BME280;68833;53.160;17.920;2023-11-18T03:06:28;101245.84;;;2.14;83.51
79366;BME280;68833;53.160;17.920;2023-11-18T03:08:55;101244.48;;;2.15;83.51
79366;BME280;68833;53.160;17.920;2023-11-18T03:11:21;101246.23;;;2.16;83.49
79366;BME280;68833;53.160;17.920;2023-11-18T03:13:49;101250.20;;;2.15;83.61
79366;BME280;68833;53.160;17.920;2023-11-18T03:16:18;101252.88;;;2.12;83.59
79366;BME280;68833;53.160;17.920;2023-11-18T03:18:44;101259.48;;;2.08;83.77
79366;BME280;68833;53.160;17.920;2023-11-18T03:21:13;101268.77;;;2.06;83.28
79366;BME280;68833;53.160;17.920;2023-11-18T03:23:40;101276.02;;;2.05;83.96
79366;BME280;68833;53.160;17.920;2023-11-18T03:26:11;101277.08;;;2.06;83.69
79366;BME280;68833;53.160;17.920;2023-11-18T03:28:38;101286.70;;;2.08;83.83
79366;BME280;68833;53.160;17.920;2023-11-18T03:31:06;101291.77;;;2.10;83.67
79366;BME280;68833;53.160;17.920;2023-11-18T03:33:34;101293.88;;;2.11;83.65
79366;BME280;68833;53.160;17.920;2023-11-18T03:36:01;101299.85;;;2.13;83.10
79366;BME280;68833;53.160;17.920;2023-11-18T03:38:28;101301.82;;;2.14;83.84
79366;BME280;68833;53.160;17.920;2023-11-18T03:40:55;101304.09;;;2.15;83.34
79366;BME280;68833;53.160;17.920;2023-11-18T03:43:23;101307.27;;;2.16;83.52
79366;BME280;68833;53.160;17.920;2023-11-18T03:45:50;101313.03;;;2.17;83.89
79366;BME280;68833;53.160;17.920;2023-11-18T03:48:19;101316.35;;;2.18;83.85
79366;BME280;68833;53.160;17.920;2023-11-18T03:50:46;101319.73;;;2.22;84.03
79366;BME280;68833;53.160;17.920;2023-11-18T03:53:14;101320.03;;;2.25;84.05
79366;BME280;68833;53.160;17.920;2023-11-18T03:55:41;101315.98;;;2.28;83.64
79366;BME280;68833;53.160;17.920;2023-11-18T03:58:08;101315.02;;;2.30;83.81
79366;BME280;68833;53.160;17.920;2023-11-18T04:00:35;101314.02;;;2.32;83.79
79366;BME280;68833;53.160;17.920;2023-11-18T04:03:02;101318.20;;;2.32;84.16
79366;BME280;68833;53.160;17.920;2023-11-18T04:05:30;101321.13;;;2.32;83.75
79366;BME280;68833;53.160;17.920;2023-11-18T04:07:58;101326.20;;;2.33;83.60
79366;BME280;68833;53.160;17.920;2023-11-18T04:10:25;101331.14;;;2.36;83.87
79366;BME280;68833;53.160;17.920;2023-11-18T04:12:53;101334.11;;;2.36;83.81
79366;BME280;68833;53.160;17.920;2023-11-18T04:15:20;101337.60;;;2.37;83.90
79366;BME280;68833;53.160;17.920;2023-11-18T04:17:47;101334.85;;;2.38;83.70
79366;BME280;68833;53.160;17.920;2023-11-18T04:20:15;101342.13;;;2.37;83.23
79366;BME280;68833;53.160;17.920;2023-11-18T04:22:43;101345.20;;;2.36;83.48
79366;BME280;68833;53.160;17.920;2023-11-18T04:25:12;101348.84;;;2.36;83.37
79366;BME280;68833;53.160;17.920;2023-11-18T04:27:39;101356.02;;;2.38;83.56
79366;BME280;68833;53.160;17.920;2023-11-18T04:30:06;101356.91;;;2.39;83.43
79366;BME280;68833;53.160;17.920;2023-11-18T04:32:35;101361.09;;;2.39;83.77
79366;BME280;68833;53.160;17.920;2023-11-18T04:35:03;101359.36;;;2.39;84.11
79366;BME280;68833;53.160;17.920;2023-11-18T04:37:35;101359.98;;;2.38;83.71
79366;BME280;68833;53.160;17.920;2023-11-18T04:40:03;101360.05;;;2.39;83.67
79366;BME280;68833;53.160;17.920;2023-11-18T04:42:31;101360.12;;;2.41;84.15
79366;BME280;68833;53.160;17.920;2023-11-18T04:44:58;101356.83;;;2.41;83.78
79366;BME280;68833;53.160;17.920;2023-11-18T04:47:26;101363.27;;;2.42;83.63
79366;BME280;68833;53.160;17.920;2023-11-18T04:49:53;101363.27;;;2.42;83.91
79366;BME280;68833;53.160;17.920;2023-11-18T04:52:20;101361.86;;;2.42;83.83
79366;BME280;68833;53.160;17.920;2023-11-18T04:54:47;101369.80;;;2.41;83.59
79366;BME280;68833;53.160;17.920;2023-11-18T04:57:14;101373.98;;;2.41;83.66
79366;BME280;68833;53.160;17.920;2023-11-18T04:59:42;101377.16;;;2.43;83.84
79366;BME280;68833;53.160;17.920;2023-11-18T05:02:10;101377.77;;;2.45;83.70
79366;BME280;68833;53.160;17.920;2023-11-18T05:04:37;101374.32;;;2.46;83.92
79366;BME280;68833;53.160;17.920;2023-11-18T05:07:04;101375.20;;;2.46;84.12
79366;BME280;68833;53.160;17.920;2023-11-18T05:09:31;101375.40;;;2.47;83.98
79366;BME280;68833;53.160;17.920;2023-11-18T05:11:58;101378.52;;;2.47;83.67
79366;BME280;68833;53.160;17.920;2023-11-18T05:14:25;101382.40;;;2.49;84.13
79366;BME280;68833;53.160;17.920;2023-11-18T05:16:53;101387.17;;;2.51;83.85
79366;BME280;68833;53.160;17.920;2023-11-18T05:19:20;101394.49;;;2.52;83.95
79366;BME280;68833;53.160;17.920;2023-11-18T05:21:47;101390.34;;;2.52;83.90
79366;BME280;68833;53.160;17.920;2023-11-18T05:24:16;101389.02;;;2.49;83.71
79366;BME280;68833;53.160;17.920;2023-11-18T05:26:43;101389.27;;;2.47;83.76
79366;BME280;68833;53.160;17.920;2023-11-18T05:29:10;101393.40;;;2.46;83.83
79366;BME280;68833;53.160;17.920;2023-11-18T05:31:37;101401.29;;;2.48;83.66
79366;BME280;68833;53.160;17.920;2023-11-18T05:34:04;101404.94;;;2.49;83.72
79366;BME280;68833;53.160;17.920;2023-11-18T05:36:31;101408.95;;;2.49;84.24
79366;BME280;68833;53.160;17.920;2023-11-18T05:39:04;101411.20;;;2.49;83.42
79366;BME280;68833;53.160;17.920;2023-11-18T05:41:35;101408.05;;;2.48;83.53
79366;BME280;68833;53.160;17.920;2023-11-18T05:44:06;101411.14;;;2.47;83.34
79366;BME280;68833;53.160;17.920;2023-11-18T05:46:36;101413.05;;;2.47;84.10
79366;BME280;68833;53.160;17.920;2023-11-18T05:49:04;101414.21;;;2.46;83.42
79366;BME280;68833;53.160;17.920;2023-11-18T05:51:35;101422.14;;;2.45;83.48
79366;BME280;68833;53.160;17.920;2023-11-18T05:54:02;101418.98;;;2.44;83.93
79366;BME280;68833;53.160;17.920;2023-11-18T05:56:29;101420.29;;;2.42;83.33
79366;BME280;68833;53.160;17.920;2023-11-18T05:58:56;101422.52;;;2.41;83.67
79366;BME280;68833;53.160;17.920;2023-11-18T06:01:23;101426.56;;;2.43;83.68
79366;BME280;68833;53.160;17.920;2023-11-18T06:03:53;101427.09;;;2.43;83.61
79366;BME280;68833;53.160;17.920;2023-11-18T06:06:20;101425.38;;;2.43;84.10
79366;BME280;68833;53.160;17.920;2023-11-18T06:08:48;101424.90;;;2.44;84.01
79366;BME280;68833;53.160;17.920;2023-11-18T06:11:15;101425.94;;;2.44;84.29
79366;BME280;68833;53.160;17.920;2023-11-18T06:16:24;101420.56;;;2.44;83.97
79366;BME280;68833;53.160;17.920;2023-11-18T06:18:56;101418.34;;;2.45;84.25
79366;BME280;68833;53.160;17.920;2023-11-18T06:21:24;101426.75;;;2.47;83.98
79366;BME280;68833;53.160;17.920;2023-11-18T06:23:55;101435.20;;;2.51;84.07
79366;BME280;68833;53.160;17.920;2023-11-18T06:26:22;101440.50;;;2.54;84.03
79366;BME280;68833;53.160;17.920;2023-11-18T06:28:51;101446.45;;;2.56;83.81
79366;BME280;68833;53.160;17.920;2023-11-18T06:31:17;101448.39;;;2.57;83.58
79366;BME280;68833;53.160;17.920;2023-11-18T06:33:46;101452.48;;;2.59;83.92
79366;BME280;68833;53.160;17.920;2023-11-18T06:38:41;101455.83;;;2.61;83.85
79366;BME280;68833;53.160;17.920;2023-11-18T06:41:08;101459.45;;;2.60;83.48
79366;BME280;68833;53.160;17.920;2023-11-18T06:43:38;101459.23;;;2.59;83.65
79366;BME280;68833;53.160;17.920;2023-11-18T06:46:31;101460.27;;;2.60;83.89
79366;BME280;68833;53.160;17.920;2023-11-18T06:49:01;101463.01;;;2.58;83.80
79366;BME280;68833;53.160;17.920;2023-11-18T06:51:35;101466.82;;;2.58;83.82
79366;BME280;68833;53.160;17.920;2023-11-18T06:54:02;101467.71;;;2.59;83.43
79366;BME280;68833;53.160;17.920;2023-11-18T06:56:42;101464.08;;;2.59;83.60
79366;BME280;68833;53.160;17.920;2023-11-18T06:59:10;101464.14;;;2.61;83.68
79366;BME280;68833;53.160;17.920;2023-11-18T07:01:40;101465.63;;;2.59;83.66
79366;BME280;68833;53.160;17.920;2023-11-18T07:04:10;101467.96;;;2.56;83.45
79366;BME280;68833;53.160;17.920;2023-11-18T07:06:38;101470.31;;;2.54;83.92
79366;BME280;68833;53.160;17.920;2023-11-18T07:09:06;101473.45;;;2.54;84.00
79366;BME280;68833;53.160;17.920;2023-11-18T07:11:40;101476.98;;;2.56;83.65
79366;BME280;68833;53.160;17.920;2023-11-18T07:14:09;101477.16;;;2.57;83.76
79366;BME280;68833;53.160;17.920;2023-11-18T07:16:38;101475.98;;;2.57;83.73
79366;BME280;68833;53.160;17.920;2023-11-18T07:19:06;101476.70;;;2.58;83.75
79366;BME280;68833;53.160;17.920;2023-11-18T07:21:36;101478.10;;;2.58;83.88
79366;BME280;68833;53.160;17.920;2023-11-18T07:24:03;101478.55;;;2.61;83.80
79366;BME280;68833;53.160;17.920;2023-11-18T07:26:30;101475.13;;;2.63;83.74
79366;BME280;68833;53.160;17.920;2023-11-18T07:28:57;101478.84;;;2.64;83.89
79366;BME280;68833;53.160;17.920;2023-11-18T07:31:24;101477.56;;;2.67;83.90
79366;BME280;68833;53.160;17.920;2023-11-18T07:33:51;101482.45;;;2.68;83.51
79366;BME280;68833;53.160;17.920;2023-11-18T07:36:19;101484.64;;;2.67;83.47
79366;BME280;68833;53.160;17.920;2023-11-18T07:38:49;101487.27;;;2.67;84.01
79366;BME280;68833;53.160;17.920;2023-11-18T07:41:18;101483.36;;;2.69;83.98
79366;BME280;68833;53.160;17.920;2023-11-18T07:43:50;101487.27;;;2.72;83.66
79366;BME280;68833;53.160;17.920;2023-11-18T07:46:19;101491.50;;;2.74;83.88
79366;BME280;68833;53.160;17.920;2023-11-18T07:48:52;101496.04;;;2.75;83.92
79366;BME280;68833;53.160;17.920;2023-11-18T07:51:19;101494.00;;;2.76;83.83
79366;BME280;68833;53.160;17.920;2023-11-18T07:53:51;101498.70;;;2.76;84.05
79366;BME280;68833;53.160;17.920;2023-11-18T07:56:18;101500.33;;;2.78;83.62
79366;BME280;68833;53.160;17.920;2023-11-18T07:58:45;101495.52;;;2.79;83.73
79366;BME280;68833;53.160;17.920;2023-11-18T08:01:14;101501.67;;;2.82;83.85
79366;BME280;68833;53.160;17.920;2023-11-18T08:03:43;101499.47;;;2.83;84.05
79366;BME280;68833;53.160;17.920;2023-11-18T08:06:11;101499.54;;;2.85;83.88
79366;BME280;68833;53.160;17.920;2023-11-18T08:08:39;101502.88;;;2.86;84.03
79366;BME280;68833;53.160;17.920;2023-11-18T08:11:06;101502.08;;;2.89;83.75
79366;BME280;68833;53.160;17.920;2023-11-18T08:13:33;101506.52;;;2.92;83.68
79366;BME280;68833;53.160;17.920;2023-11-18T08:16:00;101508.90;;;2.90;83.60
79366;BME280;68833;53.160;17.920;2023-11-18T08:18:28;101504.19;;;2.89;83.77
79366;BME280;68833;53.160;17.920;2023-11-18T08:20:58;101505.59;;;2.90;83.77
79366;BME280;68833;53.160;17.920;2023-11-18T08:23:27;101507.77;;;2.87;83.66
79366;BME280;68833;53.160;17.920;2023-11-18T08:25:55;101507.82;;;2.89;83.56
79366;BME280;68833;53.160;17.920;2023-11-18T08:28:22;101502.17;;;2.91;83.61
79366;BME280;68833;53.160;17.920;2023-11-18T08:30:49;101501.95;;;2.95;83.54
79366;BME280;68833;53.160;17.920;2023-11-18T08:33:19;101503.94;;;2.97;83.69
79366;BME280;68833;53.160;17.920;2023-11-18T08:35:48;101507.31;;;2.99;83.69
79366;BME280;68833;53.160;17.920;2023-11-18T08:38:15;101508.39;;;3.00;83.50
79366;BME280;68833;53.160;17.920;2023-11-18T08:40:43;101514.94;;;3.04;83.81
79366;BME280;68833;53.160;17.920;2023-11-18T08:43:11;101509.52;;;3.07;83.58
79366;BME280;68833;53.160;17.920;2023-11-18T08:45:38;101513.91;;;3.09;83.85
79366;BME280;68833;53.160;17.920;2023-11-18T08:48:05;101511.63;;;3.08;83.01
79366;BME280;68833;53.160;17.920;2023-11-18T08:50:35;101511.30;;;3.04;82.86
79366;BME280;68833;53.160;17.920;2023-11-18T08:53:03;101510.61;;;2.99;82.65
79366;BME280;68833;53.160;17.920;2023-11-18T08:55:36;101518.63;;;2.95;83.15
79366;BME280;68833;53.160;17.920;2023-11-18T08:58:06;101528.46;;;2.94;83.16
79366;BME280;68833;53.160;17.920;2023-11-18T09:00:43;101533.52;;;2.94;83.26
79366;BME280;68833;53.160;17.920;2023-11-18T09:03:16;101539.13;;;2.96;83.25
79366;BME280;68833;53.160;17.920;2023-11-18T09:05:58;101549.61;;;2.98;83.29
79366;BME280;68833;53.160;17.920;2023-11-18T09:08:32;101550.39;;;2.96;83.32
79366;BME280;68833;53.160;17.920;2023-11-18T09:11:02;101558.34;;;2.94;83.53
79366;BME280;68833;53.160;17.920;2023-11-18T09:13:32;101559.29;;;2.92;83.03
79366;BME280;68833;53.160;17.920;2023-11-18T09:16:03;101557.48;;;2.90;83.31
79366;BME280;68833;53.160;17.920;2023-11-18T09:18:30;101562.66;;;2.89;83.19
79366;BME280;68833;53.160;17.920;2023-11-18T09:21:00;101564.83;;;2.92;83.42
79366;BME280;68833;53.160;17.920;2023-11-18T09:23:33;101565.26;;;2.94;83.19
79366;BME280;68833;53.160;17.920;2023-11-18T09:26:04;101564.52;;;2.97;83.41
79366;BME280;68833;53.160;17.920;2023-11-18T09:28:34;101565.15;;;3.00;83.63
79366;BME280;68833;53.160;17.920;2023-11-18T09:31:02;101566.09;;;3.03;83.59
79366;BME280;68833;53.160;17.920;2023-11-18T09:33:31;101567.48;;;3.08;83.23
79366;BME280;68833;53.160;17.920;2023-11-18T09:38:37;101581.39;;;3.18;82.99
79366;BME280;68833;53.160;17.920;2023-11-18T09:41:09;101584.64;;;3.21;82.77
79366;BME280;68833;53.160;17.920;2023-11-18T09:43:43;101585.02;;;3.22;82.66
79366;BME280;68833;53.160;17.920;2023-11-18T09:46:15;101588.35;;;3.24;82.95
79366;BME280;68833;53.160;17.920;2023-11-18T09:48:53;101592.89;;;3.24;82.87
79366;BME280;68833;53.160;17.920;2023-11-18T09:51:22;101590.92;;;3.27;83.13
79366;BME280;68833;53.160;17.920;2023-11-18T09:53:51;101601.07;;;3.30;83.33
79366;BME280;68833;53.160;17.920;2023-11-18T09:56:30;101599.48;;;3.29;82.80
79366;BME280;68833;53.160;17.920;2023-11-18T09:59:12;101599.63;;;3.28;82.28
79366;BME280;68833;53.160;17.920;2023-11-18T10:01:43;101602.86;;;3.32;82.54
79366;BME280;68833;53.160;17.920;2023-11-18T10:04:12;101607.64;;;3.34;82.02
79366;BME280;68833;53.160;17.920;2023-11-18T10:06:43;101613.48;;;3.32;81.79
79366;BME280;68833;53.160;17.920;2023-11-18T10:09:11;101615.55;;;3.27;81.77
79366;BME280;68833;53.160;17.920;2023-11-18T10:11:43;101613.41;;;3.25;82.20
79366;BME280;68833;53.160;17.920;2023-11-18T10:14:14;101615.88;;;3.27;81.74
79366;BME280;68833;53.160;17.920;2023-11-18T10:16:45;101617.27;;;3.27;81.59
79366;BME280;68833;53.160;17.920;2023-11-18T10:19:15;101613.69;;;3.28;81.52
79366;BME280;68833;53.160;17.920;2023-11-18T10:21:44;101619.05;;;3.28;81.35
79366;BME280;68833;53.160;17.920;2023-11-18T10:24:16;101621.63;;;3.27;80.73
79366;BME280;68833;53.160;17.920;2023-11-18T10:26:55;101621.73;;;3.20;81.39
79366;BME280;68833;53.160;17.920;2023-11-18T10:29:25;101622.30;;;3.16;81.92
79366;BME280;68833;53.160;17.920;2023-11-18T10:32:05;101622.70;;;3.18;81.59
79366;BME280;68833;53.160;17.920;2023-11-18T10:34:36;101620.87;;;3.20;81.69
79366;BME280;68833;53.160;17.920;2023-11-18T10:37:03;101628.97;;;3.24;81.12
79366;BME280;68833;53.160;17.920;2023-11-18T10:39:31;101630.52;;;3.23;81.02
79366;BME280;68833;53.160;17.920;2023-11-18T10:41:59;101629.29;;;3.23;81.52
79366;BME280;68833;53.160;17.920;2023-11-18T10:44:27;101630.92;;;3.25;80.63
79366;BME280;68833;53.160;17.920;2023-11-18T10:46:56;101630.71;;;3.29;81.33
79366;BME280;68833;53.160;17.920;2023-11-18T10:49:27;101625.09;;;3.31;80.82
79366;BME280;68833;53.160;17.920;2023-11-18T10:51:57;101622.61;;;3.35;80.72
79366;BME280;68833;53.160;17.920;2023-11-18T10:54:24;101621.73;;;3.40;80.52
79366;BME280;68833;53.160;17.920;2023-11-18T10:56:53;101621.38;;;3.44;80.42
79366;BME280;68833;53.160;17.920;2023-11-18T10:59:23;101620.05;;;3.46;79.90
79366;BME280;68833;53.160;17.920;2023-11-18T11:03:35;101623.41;;;3.48;79.13
79366;BME280;68833;53.160;17.920;2023-11-18T11:06:15;101624.88;;;3.45;79.45
79366;BME280;68833;53.160;17.920;2023-11-18T11:08:44;101627.52;;;3.46;79.36
79366;BME280;68833;53.160;17.920;2023-11-18T11:11:13;101630.73;;;3.48;79.57
79366;BME280;68833;53.160;17.920;2023-11-18T11:13:49;101631.33;;;3.50;79.16
79366;BME280;68833;53.160;17.920;2023-11-18T11:16:28;101627.02;;;3.51;79.12
79366;BME280;68833;53.160;17.920;2023-11-18T11:19:04;101635.89;;;3.52;79.06
79366;BME280;68833;53.160;17.920;2023-11-18T11:21:42;101636.92;;;3.51;78.37
79366;BME280;68833;53.160;17.920;2023-11-18T11:27:25;101631.71;;;3.52;78.25
79366;BME280;68833;53.160;17.920;2023-11-18T11:32:54;101643.50;;;3.56;78.28
79366;BME280;68833;53.160;17.920;2023-11-18T11:35:33;101648.86;;;3.55;78.95
79366;BME280;68833;53.160;17.920;2023-11-18T11:38:04;101653.96;;;3.52;78.80
79366;BME280;68833;53.160;17.920;2023-11-18T11:40:37;101652.16;;;3.50;78.04
79366;BME280;68833;53.160;17.920;2023-11-18T11:43:07;101652.15;;;3.50;78.64
79366;BME280;68833;53.160;17.920;2023-11-18T11:45:42;101652.20;;;3.51;79.04
79366;BME280;68833;53.160;17.920;2023-11-18T11:48:14;101656.94;;;3.53;78.72
79366;BME280;68833;53.160;17.920;2023-11-18T11:53:49;101654.14;;;3.57;78.99
79366;BME280;68833;53.160;17.920;2023-11-18T11:56:19;101656.15;;;3.60;78.78
79366;BME280;68833;53.160;17.920;2023-11-18T11:58:50;101651.99;;;3.61;78.66
79366;BME280;68833;53.160;17.920;2023-11-18T12:01:32;101653.72;;;3.60;78.62
79366;BME280;68833;53.160;17.920;2023-11-18T12:04:05;101652.49;;;3.60;79.10
79366;BME280;68833;53.160;17.920;2023-11-18T12:06:41;101649.94;;;3.62;78.51
79366;BME280;68833;53.160;17.920;2023-11-18T12:09:09;101647.31;;;3.60;78.18
79366;BME280;68833;53.160;17.920;2023-11-18T12:11:37;101651.98;;;3.65;78.28
79366;BME280;68833;53.160;17.920;2023-11-18T12:14:08;101652.77;;;3.67;78.27
79366;BME280;68833;53.160;17.920;2023-11-18T12:17:06;101656.95;;;3.68;78.24
79366;BME280;68833;53.160;17.920;2023-11-18T12:19:48;101658.55;;;3.69;78.51
79366;BME280;68833;53.160;17.920;2023-11-18T12:22:20;101664.61;;;3.69;78.11
79366;BME280;68833;53.160;17.920;2023-11-18T12:35:22;101650.16;;;3.58;77.92
79366;BME280;68833;53.160;17.920;2023-11-18T12:48:53;101650.63;;;3.61;78.33
79366;BME280;68833;53.160;17.920;2023-11-18T12:51:23;101648.77;;;3.62;78.28
79366;BME280;68833;53.160;17.920;2023-11-18T12:53:51;101648.38;;;3.62;78.64
79366;BME280;68833;53.160;17.920;2023-11-18T12:56:20;101654.59;;;3.65;78.50
79366;BME280;68833;53.160;17.920;2023-11-18T12:58:49;101663.54;;;3.68;78.71
79366;BME280;68833;53.160;17.920;2023-11-18T13:01:17;101668.48;;;3.70;78.59
79366;BME280;68833;53.160;17.920;2023-11-18T13:03:46;101665.49;;;3.69;77.94
79366;BME280;68833;53.160;17.920;2023-11-18T13:06:13;101668.55;;;3.72;78.41
79366;BME280;68833;53.160;17.920;2023-11-18T13:08:41;101672.45;;;3.74;78.44
79366;BME280;68833;53.160;17.920;2023-11-18T13:11:09;101670.52;;;3.74;78.18
79366;BME280;68833;53.160;17.920;2023-11-18T13:13:42;101667.04;;;3.73;78.21
79366;BME280;68833;53.160;17.920;2023-11-18T13:16:10;101671.38;;;3.73;77.90
79366;BME280;68833;53.160;17.920;2023-11-18T13:18:44;101672.36;;;3.71;77.83
79366;BME280;68833;53.160;17.920;2023-11-18T13:21:30;101670.77;;;3.71;78.14
79366;BME280;68833;53.160;17.920;2023-11-18T13:23:57;101670.49;;;3.73;78.03
79366;BME280;68833;53.160;17.920;2023-11-18T13:26:24;101668.30;;;3.75;78.00
79366;BME280;68833;53.160;17.920;2023-11-18T13:28:51;101669.20;;;3.76;78.04
79366;BME280;68833;53.160;17.920;2023-11-18T13:31:19;101673.80;;;3.78;78.44
79366;BME280;68833;53.160;17.920;2023-11-18T13:33:47;101674.32;;;3.78;78.33
79366;BME280;68833;53.160;17.920;2023-11-18T13:36:15;101678.63;;;3.77;78.35
79366;BME280;68833;53.160;17.920;2023-11-18T13:38:42;101677.48;;;3.74;78.25
79366;BME280;68833;53.160;17.920;2023-11-18T13:41:12;101677.35;;;3.75;77.91